createdAt,value
2022-11-30T00:00:17.283Z,68.27
2022-11-30T00:05:18.887Z,68.37
2022-11-30T00:10:22.181Z,68.38
2022-11-30T00:15:23.790Z,68.36
2022-11-30T00:20:26.219Z,68.37
2022-11-30T00:25:27.915Z,68.35
2022-11-30T00:30:30.705Z,68.48
2022-11-30T00:35:32.420Z,68.45
2022-11-30T00:40:34.061Z,68.34
2022-11-30T00:45:35.657Z,68.35
2022-11-30T00:50:37.234Z,68.71
2022-11-30T00:55:38.818Z,68.46
2022-11-30T01:00:40.888Z,68.54
2022-11-30T01:05:46.249Z,68.48
2022-11-30T01:10:53.337Z,68.25
2022-11-30T01:15:55.054Z,68.11
2022-11-30T01:20:56.725Z,68.17
2022-11-30T01:25:58.313Z,68.08
2022-11-30T01:31:08.038Z,68.25
2022-11-30T01:36:12.780Z,68.29
2022-11-30T01:41:18.985Z,68.21
2022-11-30T01:46:29.149Z,68.39
2022-11-30T01:51:54.938Z,68.49
2022-11-30T01:57:22.991Z,68.67
2022-11-30T02:02:55.231Z,68.58
2022-11-30T02:07:56.991Z,68.61
2022-11-30T02:13:01.265Z,68.63
2022-11-30T02:18:13.448Z,68.66
2022-11-30T02:23:39.539Z,68.64
2022-11-30T02:29:02.350Z,68.73
2022-11-30T02:34:07.741Z,68.61
2022-11-30T02:39:11.691Z,68.60
2022-11-30T02:44:14.015Z,68.46
2022-11-30T02:49:39.505Z,68.74
2022-11-30T02:54:41.542Z,68.42
2022-11-30T02:59:43.295Z,68.65
2022-11-30T03:04:45.125Z,68.68
2022-11-30T03:09:46.863Z,68.51
2022-11-30T03:14:48.668Z,68.33
2022-11-30T03:19:50.534Z,68.41
2022-11-30T03:24:52.129Z,68.76
2022-11-30T03:29:53.837Z,68.71
2022-11-30T03:34:55.441Z,68.85
2022-11-30T03:39:58.505Z,68.78
2022-11-30T03:45:00.212Z,68.73
2022-11-30T03:50:01.878Z,68.77
2022-11-30T03:55:04.124Z,68.78
2022-11-30T04:00:06.939Z,68.89
2022-11-30T04:05:09.026Z,68.80
2022-11-30T04:10:11.190Z,68.86
2022-11-30T04:15:12.784Z,68.69
2022-11-30T04:20:14.435Z,68.59
2022-11-30T04:25:16.469Z,68.67
2022-11-30T04:30:18.135Z,68.63
2022-11-30T04:35:19.769Z,68.76
2022-11-30T04:40:21.443Z,68.69
2022-11-30T04:45:23.038Z,68.54
2022-11-30T04:50:24.648Z,68.58
2022-11-30T04:55:26.386Z,68.59
2022-11-30T05:00:28.031Z,68.58
2022-11-30T05:05:29.704Z,68.50
2022-11-30T05:10:33.788Z,68.42
2022-11-30T05:15:35.377Z,68.35
2022-11-30T05:20:36.969Z,68.43
2022-11-30T05:25:38.938Z,68.43
2022-11-30T05:30:42.677Z,68.61
2022-11-30T05:35:44.303Z,68.58
2022-11-30T05:40:45.942Z,68.42
2022-11-30T05:45:47.521Z,68.46
2022-11-30T05:50:49.102Z,68.44
2022-11-30T05:55:50.724Z,68.11
2022-11-30T06:00:52.323Z,68.27
2022-11-30T06:05:53.924Z,68.36
2022-11-30T06:11:00.373Z,68.54
2022-11-30T06:16:03.991Z,68.59
2022-11-30T06:21:08.353Z,68.49
2022-11-30T06:26:12.697Z,68.59
2022-11-30T06:31:14.367Z,68.49
2022-11-30T06:36:21.235Z,68.57
2022-11-30T06:41:22.907Z,68.37
2022-11-30T06:46:25.085Z,68.48
2022-11-30T06:51:26.746Z,68.54
2022-11-30T06:56:28.320Z,68.62
2022-11-30T07:01:29.974Z,68.66
2022-11-30T07:06:31.713Z,68.68
2022-11-30T07:11:33.422Z,68.82
2022-11-30T07:16:35.096Z,68.67
2022-11-30T07:21:36.755Z,68.52
2022-11-30T07:26:38.349Z,68.25
2022-11-30T07:31:39.981Z,68.18
2022-11-30T07:36:41.619Z,68.48
2022-11-30T07:41:43.345Z,68.47
2022-11-30T07:46:44.945Z,68.39
2022-11-30T07:51:46.590Z,68.29
2022-11-30T07:56:48.200Z,68.23
2022-11-30T08:01:49.929Z,68.13
2022-11-30T08:06:53.549Z,68.21
2022-11-30T08:11:55.183Z,68.11
2022-11-30T08:16:56.834Z,68.07
2022-11-30T08:21:58.469Z,68.44
2022-11-30T08:27:00.081Z,68.41
2022-11-30T08:32:01.653Z,68.38
2022-11-30T08:37:04.112Z,68.13
2022-11-30T08:42:05.796Z,68.10
2022-11-30T08:47:07.458Z,68.12
2022-11-30T08:57:31.411Z,67.42
2022-11-30T09:02:33.048Z,67.42
2022-11-30T09:07:34.706Z,67.21
2022-11-30T09:12:38.176Z,66.69
2022-11-30T09:17:39.773Z,66.76
2022-11-30T09:22:42.109Z,66.85
2022-11-30T09:27:43.690Z,66.83
2022-11-30T09:32:45.303Z,66.53
2022-11-30T09:37:46.909Z,66.32
2022-11-30T09:43:02.703Z,66.43
2022-11-30T09:48:18.444Z,66.26
2022-11-30T09:53:29.657Z,66.22
2022-11-30T09:58:47.599Z,66.11
2022-11-30T10:03:49.719Z,66.04
2022-11-30T10:09:23.924Z,66.26
2022-11-30T10:15:00.884Z,65.92
2022-11-30T10:20:37.080Z,65.20
2022-11-30T10:25:58.749Z,64.96
2022-11-30T10:31:01.824Z,65.01
2022-11-30T10:36:10.139Z,64.87
2022-11-30T10:41:17.356Z,64.88
2022-11-30T10:46:24.844Z,65.01
2022-11-30T10:51:27.393Z,64.65
2022-11-30T10:56:28.970Z,64.80
2022-11-30T11:01:36.484Z,64.41
2022-11-30T11:06:47.579Z,64.14
2022-11-30T11:12:03.737Z,64.17
2022-11-30T11:17:21.779Z,64.39
2022-11-30T11:22:26.073Z,64.04
2022-11-30T11:27:33.565Z,63.74
2022-11-30T11:32:35.293Z,63.81
2022-11-30T11:37:41.179Z,64.07
2022-11-30T11:42:42.724Z,63.73
2022-11-30T11:47:45.986Z,63.80
2022-11-30T11:52:47.686Z,64.12
2022-11-30T11:57:57.330Z,63.92
2022-11-30T12:03:16.043Z,63.79
2022-11-30T12:08:41.835Z,63.36
2022-11-30T12:13:45.418Z,63.54
2022-11-30T12:18:55.044Z,63.87
2022-11-30T12:24:26.049Z,63.76
2022-11-30T12:29:34.773Z,63.79
2022-11-30T12:35:00.032Z,63.71
2022-11-30T12:40:27.941Z,63.56
2022-11-30T12:45:32.550Z,63.54
2022-11-30T12:51:13.521Z,62.99
2022-11-30T12:56:27.154Z,63.49
2022-11-30T13:01:49.744Z,63.96
2022-11-30T13:07:02.846Z,63.49
2022-11-30T13:12:17.445Z,63.97
2022-11-30T13:17:19.932Z,63.78
2022-11-30T13:22:54.060Z,63.63
2022-11-30T13:28:07.636Z,63.71
2022-11-30T13:33:34.831Z,63.46
2022-11-30T13:38:37.990Z,63.75
2022-11-30T13:43:47.763Z,63.87
2022-11-30T13:49:08.750Z,64.28
2022-11-30T13:54:43.242Z,64.50
2022-11-30T13:59:56.168Z,64.88
2022-11-30T14:05:16.100Z,65.32
2022-11-30T14:10:41.279Z,64.61
2022-11-30T14:15:42.880Z,65.15
2022-11-30T14:21:10.240Z,65.41
2022-11-30T14:26:15.689Z,65.25
2022-11-30T14:31:31.205Z,65.00
2022-11-30T14:36:41.613Z,65.16
2022-11-30T14:41:43.219Z,65.81
2022-11-30T14:46:45.094Z,65.52
2022-11-30T14:51:53.134Z,65.89
2022-11-30T14:57:02.793Z,65.92
2022-11-30T15:02:12.019Z,66.29
2022-11-30T15:07:15.405Z,65.71
2022-11-30T15:12:22.721Z,65.88
2022-11-30T15:17:24.608Z,65.81
2022-11-30T15:22:34.769Z,65.68
2022-11-30T15:27:36.368Z,65.68
2022-11-30T15:32:37.977Z,66.01
2022-11-30T15:37:43.806Z,66.02
2022-11-30T15:42:49.141Z,66.27
2022-11-30T15:47:52.757Z,66.39
2022-11-30T15:52:56.043Z,66.36
2022-11-30T15:58:02.367Z,66.54
2022-11-30T16:03:13.034Z,66.68
2022-11-30T16:08:16.806Z,66.83
2022-11-30T16:13:21.689Z,66.63
2022-11-30T16:18:28.009Z,66.69
2022-11-30T16:23:30.051Z,66.66
2022-11-30T16:28:31.687Z,66.35
2022-11-30T16:33:33.536Z,66.64
2022-11-30T16:38:35.229Z,66.67
2022-11-30T16:43:39.526Z,66.75
2022-11-30T16:48:41.650Z,66.74
2022-11-30T16:53:43.883Z,66.91
2022-11-30T16:58:46.259Z,67.11
2022-11-30T17:03:50.944Z,66.66
2022-11-30T17:08:53.462Z,67.15
2022-11-30T17:13:55.719Z,66.69
2022-11-30T17:18:57.465Z,66.66
2022-11-30T17:23:59.544Z,66.40
2022-11-30T17:29:01.167Z,66.11
2022-11-30T17:34:03.017Z,66.37
2022-11-30T17:39:06.908Z,66.53
2022-11-30T17:44:09.984Z,66.60
2022-11-30T17:49:11.585Z,66.46
2022-11-30T17:54:13.248Z,66.56
2022-11-30T17:59:14.843Z,66.78
2022-11-30T18:04:16.475Z,66.96
2022-11-30T18:09:18.142Z,67.11
2022-11-30T18:14:19.745Z,67.27
2022-11-30T18:19:22.055Z,67.48
2022-11-30T18:24:25.476Z,66.67
2022-11-30T18:29:27.649Z,66.76
2022-11-30T18:34:30.395Z,66.78
2022-11-30T18:39:32.022Z,66.79
2022-11-30T18:44:36.081Z,66.57
2022-11-30T18:49:38.406Z,66.86
2022-11-30T18:54:39.995Z,67.06
2022-11-30T18:59:41.604Z,67.19
2022-11-30T19:04:43.207Z,67.50
2022-11-30T19:09:44.807Z,67.78
2022-11-30T19:14:46.724Z,67.81
2022-11-30T19:19:48.460Z,67.75
2022-11-30T19:24:50.251Z,67.61
2022-11-30T19:29:52.231Z,67.73
2022-11-30T19:34:53.883Z,67.71
2022-11-30T19:39:55.457Z,67.89
2022-11-30T19:44:57.113Z,67.74
2022-11-30T19:49:58.750Z,67.50
2022-11-30T19:55:00.340Z,67.41
2022-11-30T20:00:06.097Z,67.27
2022-11-30T20:05:08.094Z,67.06
2022-11-30T20:10:13.369Z,66.96
2022-11-30T20:15:14.991Z,67.17
2022-11-30T20:20:16.989Z,67.05
2022-11-30T20:25:19.415Z,67.23
2022-11-30T20:30:20.983Z,67.36
2022-11-30T20:35:22.565Z,67.50
2022-11-30T20:40:24.200Z,67.42
2022-11-30T20:45:25.810Z,67.46
2022-11-30T20:50:27.376Z,67.02
2022-11-30T20:55:28.992Z,67.33
2022-11-30T21:00:30.899Z,67.00
2022-11-30T21:05:32.695Z,67.27
2022-11-30T21:10:38.644Z,67.28
2022-11-30T21:15:40.424Z,67.20
2022-11-30T21:20:42.080Z,67.25
2022-11-30T21:25:45.733Z,67.21
2022-11-30T21:30:47.379Z,67.32
2022-11-30T21:35:49.039Z,67.08
2022-11-30T21:40:59.099Z,67.01
2022-11-30T21:46:02.007Z,67.39
2022-11-30T21:51:04.929Z,67.16
2022-11-30T21:56:12.803Z,67.30
2022-11-30T22:01:28.883Z,67.44
2022-11-30T22:06:31.716Z,67.60
2022-11-30T22:11:35.533Z,67.61
2022-11-30T22:16:37.261Z,67.55
2022-11-30T22:21:39.050Z,67.59
2022-11-30T22:26:43.854Z,67.56
2022-11-30T22:31:47.955Z,67.89
2022-11-30T22:36:49.677Z,67.68
2022-11-30T22:41:55.514Z,67.84
2022-11-30T22:46:59.760Z,67.72
2022-11-30T22:52:01.390Z,67.63
2022-11-30T22:57:03.046Z,67.83
2022-11-30T23:02:04.645Z,67.69
2022-11-30T23:07:06.233Z,67.68
2022-11-30T23:12:07.888Z,67.55
2022-11-30T23:17:09.458Z,67.98
2022-11-30T23:22:11.057Z,68.00
2022-11-30T23:27:12.647Z,67.78
2022-11-30T23:32:16.788Z,67.52
2022-11-30T23:37:19.114Z,67.91
2022-11-30T23:42:20.692Z,67.92
2022-11-30T23:47:22.287Z,68.23
2022-11-30T23:52:24.081Z,68.33
2022-11-30T23:57:25.679Z,68.57
